createdAt,value
2022-08-22T00:02:24.574Z,101780.13
2022-08-22T00:02:58.997Z,101794.97
2022-08-22T00:03:04.188Z,101756.28
2022-08-22T00:03:10.386Z,101802.50
2022-08-22T00:05:00.138Z,101780.84
2022-08-22T00:07:39.637Z,101783.00
2022-08-22T00:10:22.815Z,101783.31
2022-08-22T00:13:00.284Z,101782.72
2022-08-22T00:15:43.071Z,101778.91
2022-08-22T00:18:18.347Z,101776.00
2022-08-22T00:20:49.292Z,101783.31
2022-08-22T00:23:22.678Z,101780.84
2022-08-22T00:25:58.244Z,101787.06
2022-08-22T00:28:30.009Z,101793.16
2022-08-22T00:31:02.816Z,101784.72
2022-08-22T00:33:41.813Z,101791.59
2022-08-22T00:36:23.209Z,101785.97
2022-08-22T00:38:59.205Z,101795.22
2022-08-22T00:41:44.459Z,101789.94
2022-08-22T00:44:32.264Z,101790.41
2022-08-22T00:47:18.439Z,101796.88
2022-08-22T00:50:14.903Z,101798.19
2022-08-22T00:53:03.750Z,101802.56
2022-08-22T00:56:04.983Z,101809.00
2022-08-22T00:58:54.830Z,101800.56
2022-08-22T01:01:30.152Z,101799.63
2022-08-22T01:04:24.707Z,101801.19
2022-08-22T01:07:08.688Z,101805.47
2022-08-22T01:09:48.257Z,101802.06
2022-08-22T01:12:29.424Z,101787.53
2022-08-22T01:14:58.252Z,101801.94
2022-08-22T01:18:05.022Z,101803.47
2022-08-22T01:21:25.742Z,101800.19
2022-08-22T01:24:26.375Z,101807.72
2022-08-22T01:27:27.493Z,101803.00
2022-08-22T01:30:27.309Z,101804.09
2022-08-22T01:33:23.244Z,101806.69
2022-08-22T01:36:22.860Z,101803.00
2022-08-22T01:39:40.453Z,101807.41
2022-08-22T01:42:34.638Z,101808.19
2022-08-22T01:45:33.006Z,101803.88
2022-08-22T01:48:08.177Z,101804.72
2022-08-22T01:50:38.100Z,101804.00
2022-08-22T01:53:10.145Z,101804.31
2022-08-22T01:55:43.595Z,101801.03
2022-08-22T01:58:17.439Z,101800.50
2022-08-22T02:01:00.917Z,101803.69
2022-08-22T02:03:33.577Z,101795.88
2022-08-22T02:06:14.677Z,101794.19
2022-08-22T02:08:50.816Z,101789.66
2022-08-22T02:11:40.247Z,101790.28
2022-08-22T02:14:17.024Z,101786.03
2022-08-22T02:16:47.532Z,101796.13
2022-08-22T02:19:29.536Z,101793.66
2022-08-22T02:22:02.229Z,101789.63
2022-08-22T02:24:47.916Z,101779.75
2022-08-22T02:27:25.674Z,101790.47
2022-08-22T02:30:04.053Z,101795.84
2022-08-22T02:32:37.641Z,101793.03
2022-08-22T02:35:10.457Z,101785.34
2022-08-22T02:37:43.254Z,101784.72
2022-08-22T02:40:16.640Z,101787.25
2022-08-22T02:42:49.423Z,101792.09
2022-08-22T02:45:25.046Z,101793.06
2022-08-22T02:47:59.697Z,101789.88
2022-08-22T02:50:37.869Z,101792.13
2022-08-22T02:53:13.697Z,101784.50
2022-08-22T02:55:50.836Z,101786.56
2022-08-22T02:58:26.866Z,101778.34
2022-08-22T03:01:17.766Z,101784.53
2022-08-22T03:03:47.091Z,101787.63
2022-08-22T03:06:28.649Z,101778.31
2022-08-22T03:09:05.571Z,101780.78
2022-08-22T03:11:39.564Z,101776.53
2022-08-22T03:14:12.081Z,101777.25
2022-08-22T03:16:48.250Z,101768.19
2022-08-22T03:19:20.287Z,101773.13
2022-08-22T03:21:55.712Z,101769.16
2022-08-22T03:24:31.426Z,101772.56
2022-08-22T03:27:06.051Z,101776.00
2022-08-22T03:29:37.503Z,101773.84
2022-08-22T03:32:12.568Z,101763.16
2022-08-22T03:34:55.205Z,101765.59
2022-08-22T03:37:32.495Z,101761.66
2022-08-22T03:40:03.813Z,101759.94
2022-08-22T03:43:18.717Z,101764.09
2022-08-22T03:46:22.671Z,101744.94
2022-08-22T03:49:15.796Z,101749.03
2022-08-22T03:52:12.369Z,101739.06
2022-08-22T03:55:06.668Z,101728.06
2022-08-22T03:58:27.958Z,101739.72
2022-08-22T04:01:20.158Z,101737.44
2022-08-22T04:04:13.366Z,101749.66
2022-08-22T04:07:32.283Z,101748.25
2022-08-22T04:10:20.257Z,101748.16
2022-08-22T04:13:08.248Z,101757.25
2022-08-22T04:15:57.343Z,101752.84
2022-08-22T04:18:43.222Z,101765.06
2022-08-22T04:21:41.555Z,101771.13
2022-08-22T04:24:30.225Z,101764.94
2022-08-22T04:27:02.333Z,101775.53
2022-08-22T04:29:36.057Z,101767.06
2022-08-22T04:32:14.109Z,101771.78
2022-08-22T04:34:45.926Z,101773.81
2022-08-22T04:37:19.195Z,101773.09
2022-08-22T04:39:50.247Z,101774.13
2022-08-22T04:42:36.911Z,101775.09
2022-08-22T04:45:10.175Z,101778.22
2022-08-22T04:47:40.327Z,101775.53
2022-08-22T04:50:15.183Z,101774.81
2022-08-22T04:52:57.627Z,101772.13
2022-08-22T04:55:35.414Z,101779.06
2022-08-22T04:58:11.978Z,101787.06
2022-08-22T05:00:48.771Z,101786.22
2022-08-22T05:03:18.596Z,101789.75
2022-08-22T05:05:48.448Z,101789.75
2022-08-22T05:08:22.310Z,101791.34
2022-08-22T05:10:51.351Z,101793.38
2022-08-22T05:13:24.313Z,101792.44
2022-08-22T05:15:55.466Z,101786.84
2022-08-22T05:18:29.655Z,101789.03
2022-08-22T05:21:01.805Z,101794.16
2022-08-22T05:23:34.972Z,101787.81
2022-08-22T05:26:06.043Z,101794.78
2022-08-22T05:28:35.643Z,101804.41
2022-08-22T05:31:05.871Z,101793.16
2022-08-22T05:33:37.489Z,101819.22
2022-08-22T05:36:09.930Z,101799.38
2022-08-22T05:38:44.032Z,101813.09
2022-08-22T05:41:17.199Z,101817.25
2022-08-22T05:43:45.279Z,101818.84
2022-08-22T05:46:20.395Z,101813.91
2022-08-22T05:48:58.002Z,101819.78
2022-08-22T05:51:34.590Z,101811.72
2022-08-22T05:54:11.895Z,101813.13
2022-08-22T05:56:43.973Z,101806.91
2022-08-22T05:59:23.156Z,101819.09
2022-08-22T06:02:00.714Z,101822.41
2022-08-22T06:04:34.143Z,101823.56
2022-08-22T06:07:04.867Z,101827.38
2022-08-22T06:09:42.543Z,101828.88
2022-08-22T06:12:21.887Z,101834.41
2022-08-22T06:14:57.379Z,101825.41
2022-08-22T06:17:29.199Z,101831.97
2022-08-22T06:19:56.200Z,101835.44
2022-08-22T06:22:25.916Z,101838.59
2022-08-22T06:25:02.081Z,101830.00
2022-08-22T06:27:31.201Z,101830.63
2022-08-22T06:30:00.643Z,101830.13
2022-08-22T06:32:58.542Z,101821.94
2022-08-22T06:35:24.618Z,101820.75
2022-08-22T06:37:55.696Z,101816.84
2022-08-22T06:40:25.769Z,101823.09
2022-08-22T06:42:53.893Z,101814.47
2022-08-22T06:45:30.612Z,101823.00
2022-08-22T06:48:12.053Z,101821.25
2022-08-22T06:50:42.361Z,101809.22
2022-08-22T06:53:15.149Z,101818.78
2022-08-22T06:55:47.696Z,101818.84
2022-08-22T06:58:18.180Z,101818.19
2022-08-22T07:00:53.545Z,101824.59
2022-08-22T07:03:39.469Z,101829.31
2022-08-22T07:06:06.860Z,101819.16
2022-08-22T07:08:38.981Z,101825.63
2022-08-22T07:11:13.876Z,101815.53
2022-08-22T07:13:48.507Z,101828.75
2022-08-22T07:16:15.441Z,101815.88
2022-08-22T07:18:49.166Z,101818.47
2022-08-22T07:21:27.819Z,101817.50
2022-08-22T07:23:56.183Z,101816.06
2022-08-22T07:26:32.156Z,101804.31
2022-08-22T07:29:06.764Z,101806.84
2022-08-22T07:31:43.253Z,101806.72
2022-08-22T07:34:35.874Z,101806.03
2022-08-22T07:37:07.715Z,101804.44
2022-08-22T07:39:39.313Z,101805.72
2022-08-22T07:42:14.696Z,101810.66
2022-08-22T07:44:56.531Z,101801.84
2022-08-22T07:47:28.755Z,101807.78
2022-08-22T07:49:58.952Z,101801.22
2022-08-22T07:52:32.220Z,101801.50
2022-08-22T07:55:10.303Z,101801.78
2022-08-22T07:57:43.459Z,101799.81
2022-08-22T08:00:14.560Z,101790.88
2022-08-22T08:02:46.551Z,101783.53
2022-08-22T08:05:14.724Z,101793.44
2022-08-22T08:07:44.523Z,101790.44
2022-08-22T08:10:16.335Z,101773.06
2022-08-22T08:12:54.130Z,101782.22
2022-08-22T08:15:31.951Z,101775.50
2022-08-22T08:18:03.848Z,101776.72
2022-08-22T08:20:32.220Z,101776.38
2022-08-22T08:22:59.667Z,101767.22
2022-08-22T08:25:48.635Z,101766.03
2022-08-22T08:28:34.543Z,101766.94
2022-08-22T08:31:07.672Z,101771.19
2022-08-22T08:33:39.844Z,101759.06
2022-08-22T08:36:20.897Z,101771.50
2022-08-22T08:38:55.812Z,101775.25
2022-08-22T08:41:56.764Z,101780.66
2022-08-22T08:44:45.967Z,101783.06
2022-08-22T08:47:32.929Z,101777.63
2022-08-22T08:50:14.781Z,101785.22
2022-08-22T08:53:09.474Z,101786.22
2022-08-22T08:55:47.631Z,101789.13
2022-08-22T08:58:39.687Z,101796.53
2022-08-22T09:01:20.729Z,101794.06
2022-08-22T09:04:30.630Z,101795.41
2022-08-22T09:07:39.060Z,101790.44
2022-08-22T09:10:20.066Z,101791.44
2022-08-22T09:13:18.591Z,101795.34
2022-08-22T09:16:07.224Z,101795.16
2022-08-22T09:19:06.809Z,101787.78
2022-08-22T09:22:14.512Z,101791.13
2022-08-22T09:24:52.698Z,101783.69
2022-08-22T09:27:32.541Z,101774.03
2022-08-22T09:30:06.183Z,101779.19
2022-08-22T09:32:44.541Z,101766.91
2022-08-22T09:35:22.433Z,101767.19
2022-08-22T09:38:04.171Z,101765.56
2022-08-22T09:40:38.272Z,101763.00
2022-08-22T09:43:08.990Z,101771.66
2022-08-22T09:45:45.726Z,101770.84
2022-08-22T09:48:36.282Z,101772.63
2022-08-22T09:51:31.462Z,101767.13
2022-08-22T09:54:18.654Z,101760.97
2022-08-22T09:56:56.602Z,101753.66
2022-08-22T09:59:38.857Z,101753.84
2022-08-22T10:02:23.361Z,101760.94
2022-08-22T10:04:59.216Z,101757.56
2022-08-22T10:07:57.012Z,101763.09
2022-08-22T10:10:35.779Z,101765.41
2022-08-22T10:13:12.421Z,101759.78
2022-08-22T10:15:43.023Z,101752.44
2022-08-22T10:18:26.134Z,101743.97
2022-08-22T10:21:08.500Z,101750.97
2022-08-22T10:23:41.903Z,101754.75
2022-08-22T10:26:29.313Z,101744.47
2022-08-22T10:29:06.802Z,101743.75
2022-08-22T10:31:51.067Z,101734.66
2022-08-22T10:34:30.854Z,101739.25
2022-08-22T10:37:07.746Z,101741.28
2022-08-22T10:39:46.740Z,101743.69
2022-08-22T10:42:28.219Z,101743.56
2022-08-22T10:45:14.121Z,101753.88
2022-08-22T10:48:04.171Z,101750.81
2022-08-22T10:50:40.332Z,101747.28
2022-08-22T10:53:30.257Z,101758.31
2022-08-22T10:56:08.488Z,101749.31
2022-08-22T10:58:40.956Z,101753.53
2022-08-22T11:01:37.553Z,101756.41
2022-08-22T11:04:12.369Z,101747.78
2022-08-22T11:06:45.857Z,101753.66
2022-08-22T11:09:25.609Z,101741.44
2022-08-22T11:12:02.957Z,101743.16
2022-08-22T11:14:58.387Z,101747.59
2022-08-22T11:17:40.679Z,101743.81
2022-08-22T11:20:19.800Z,101745.19
2022-08-22T11:23:07.124Z,101748.34
2022-08-22T11:25:53.751Z,101747.88
2022-08-22T11:29:11.290Z,101738.81
2022-08-22T11:31:51.657Z,101744.69
2022-08-22T11:34:44.832Z,101741.09
2022-08-22T11:37:23.797Z,101740.00
2022-08-22T11:40:06.231Z,101747.09
2022-08-22T11:42:47.375Z,101732.53
2022-08-22T11:45:21.453Z,101734.22
2022-08-22T11:47:56.775Z,101729.25
2022-08-22T11:50:36.285Z,101721.75
2022-08-22T11:53:19.076Z,101729.09
2022-08-22T11:55:55.136Z,101733.13
2022-08-22T11:58:38.515Z,101736.19
2022-08-22T12:01:17.520Z,101742.13
2022-08-22T12:04:00.705Z,101726.91
2022-08-22T12:06:56.316Z,101731.41
2022-08-22T12:09:41.589Z,101735.81
2022-08-22T12:12:20.688Z,101740.94
2022-08-22T12:14:57.726Z,101734.84
2022-08-22T12:17:59.885Z,101737.06
2022-08-22T12:21:09.944Z,101731.78
2022-08-22T12:24:19.308Z,101726.75
2022-08-22T12:27:03.211Z,101724.25
2022-08-22T12:29:44.893Z,101709.41
2022-08-22T12:32:51.507Z,101712.22
2022-08-22T12:35:35.124Z,101712.06
2022-08-22T12:38:28.402Z,101711.31
2022-08-22T12:41:28.242Z,101701.75
2022-08-22T12:44:17.034Z,101693.38
2022-08-22T12:46:56.725Z,101697.41
2022-08-22T12:49:38.730Z,101697.94
2022-08-22T12:52:25.059Z,101693.09
2022-08-22T12:55:10.871Z,101679.00
2022-08-22T12:57:50.549Z,101692.09
2022-08-22T13:00:30.727Z,101683.53
2022-08-22T13:03:02.465Z,101682.50
2022-08-22T13:05:32.445Z,101678.53
2022-08-22T13:08:13.495Z,101681.00
2022-08-22T13:10:46.615Z,101683.81
2022-08-22T13:13:29.491Z,101685.31
2022-08-22T13:16:07.191Z,101684.91
2022-08-22T13:18:44.766Z,101679.84
2022-08-22T13:21:17.616Z,101682.41
2022-08-22T13:23:53.394Z,101680.47
2022-08-22T13:26:33.095Z,101683.19
2022-08-22T13:31:58.427Z,101675.91
2022-08-22T13:34:39.950Z,101666.41
2022-08-22T13:37:15.056Z,101658.94
2022-08-22T13:39:45.927Z,101655.00
2022-08-22T13:42:27.773Z,101665.38
2022-08-22T13:44:59.952Z,101658.06
2022-08-22T13:47:31.711Z,101658.09
2022-08-22T13:50:07.358Z,101649.81
2022-08-22T13:52:43.061Z,101637.63
2022-08-22T13:55:21.026Z,101631.09
2022-08-22T13:57:52.915Z,101629.31
2022-08-22T14:01:25.501Z,101633.81
2022-08-22T14:03:59.527Z,101632.69
2022-08-22T14:06:38.290Z,101631.16
2022-08-22T14:09:29.365Z,101636.69
2022-08-22T14:12:12.151Z,101634.78
2022-08-22T14:14:42.869Z,101642.56
2022-08-22T14:17:15.622Z,101632.59
2022-08-22T14:19:53.150Z,101638.03
2022-08-22T14:22:31.763Z,101636.34
2022-08-22T14:25:07.368Z,101622.63
2022-08-22T14:27:39.723Z,101623.72
2022-08-22T14:30:14.686Z,101617.91
2022-08-22T14:32:45.895Z,101612.09
2022-08-22T14:35:25.510Z,101619.97
2022-08-22T14:38:18.676Z,101622.03
2022-08-22T14:40:52.830Z,101618.22
2022-08-22T14:43:24.780Z,101622.94
2022-08-22T14:45:57.308Z,101619.97
2022-08-22T14:48:39.318Z,101619.59
2022-08-22T14:51:17.400Z,101615.06
2022-08-22T14:53:44.609Z,101609.78
2022-08-22T14:56:18.032Z,101612.56
2022-08-22T14:58:49.422Z,101615.22
2022-08-22T15:01:21.569Z,101608.09
2022-08-22T15:03:53.947Z,101613.44
2022-08-22T15:06:31.971Z,101609.16
2022-08-22T15:09:00.523Z,101607.50
2022-08-22T15:11:37.314Z,101606.44
2022-08-22T15:14:16.234Z,101599.19
2022-08-22T15:16:51.729Z,101602.06
2022-08-22T15:19:23.936Z,101599.41
2022-08-22T15:21:51.216Z,101602.50
2022-08-22T15:24:19.156Z,101598.06
2022-08-22T15:26:53.457Z,101593.66
2022-08-22T15:29:26.424Z,101592.81
2022-08-22T15:31:57.489Z,101596.16
2022-08-22T15:34:33.928Z,101596.22
2022-08-22T15:37:26.350Z,101592.88
2022-08-22T15:40:08.358Z,101591.53
2022-08-22T15:42:43.622Z,101595.47
2022-08-22T15:45:21.142Z,101584.97
2022-08-22T15:47:53.145Z,101579.50
2022-08-22T15:50:34.902Z,101590.41
2022-08-22T15:53:13.959Z,101587.22
2022-08-22T15:56:20.806Z,101575.88
2022-08-22T15:59:10.200Z,101570.97
2022-08-22T16:01:44.101Z,101574.00
2022-08-22T16:04:30.100Z,101569.25
2022-08-22T16:07:01.323Z,101566.22
2022-08-22T16:09:36.888Z,101568.94
2022-08-22T16:12:08.340Z,101563.16
2022-08-22T16:14:50.010Z,101562.13
2022-08-22T16:17:43.468Z,101561.78
2022-08-22T16:20:47.728Z,101565.69
2022-08-22T16:23:14.406Z,101566.53
2022-08-22T16:26:11.117Z,101564.34
2022-08-22T16:28:58.292Z,101559.06
2022-08-22T16:31:31.385Z,101558.75
2022-08-22T16:34:23.409Z,101560.44
2022-08-22T16:36:55.614Z,101551.81
2022-08-22T16:39:36.409Z,101546.03
2022-08-22T16:42:23.847Z,101548.91
2022-08-22T16:44:55.283Z,101543.78
2022-08-22T16:47:41.413Z,101540.75
2022-08-22T16:50:27.228Z,101552.28
2022-08-22T16:52:58.124Z,101547.34
2022-08-22T16:55:55.427Z,101540.38
2022-08-22T16:58:59.060Z,101541.56
2022-08-22T17:01:52.565Z,101534.91
2022-08-22T17:04:31.985Z,101530.34
2022-08-22T17:07:13.769Z,101537.47
2022-08-22T17:09:58.767Z,101530.81
2022-08-22T17:12:40.557Z,101544.19
2022-08-22T17:15:19.629Z,101533.88
2022-08-22T17:18:11.558Z,101539.91
2022-08-22T17:20:44.661Z,101544.78
2022-08-22T17:23:22.202Z,101541.75
2022-08-22T17:25:59.160Z,101541.88
2022-08-22T17:28:35.327Z,101543.88
2022-08-22T17:31:16.679Z,101550.31
2022-08-22T17:34:02.503Z,101553.69
2022-08-22T17:36:46.123Z,101566.69
2022-08-22T17:39:29.025Z,101564.63
2022-08-22T17:42:16.530Z,101567.28
2022-08-22T17:44:59.052Z,101559.59
2022-08-22T17:47:31.820Z,101565.13
2022-08-22T17:50:05.684Z,101567.63
2022-08-22T17:52:41.320Z,101570.00
2022-08-22T17:55:16.354Z,101568.97
2022-08-22T17:57:47.724Z,101569.06
2022-08-22T18:00:18.334Z,101562.72
2022-08-22T18:02:51.171Z,101562.81
2022-08-22T18:05:20.409Z,101556.66
2022-08-22T18:07:57.874Z,101552.38
2022-08-22T18:10:42.060Z,101556.28
2022-08-22T18:13:13.279Z,101550.56
2022-08-22T18:15:46.372Z,101550.31
2022-08-22T18:18:25.828Z,101553.94
2022-08-22T18:21:02.708Z,101554.53
2022-08-22T18:23:40.097Z,101548.75
2022-08-22T18:26:27.105Z,101555.38
2022-08-22T18:28:59.528Z,101548.88
2022-08-22T18:31:38.624Z,101557.28
2022-08-22T18:34:15.258Z,101560.88
2022-08-22T18:36:51.714Z,101556.66
2022-08-22T18:39:29.128Z,101564.66
2022-08-22T18:42:03.842Z,101564.38
2022-08-22T18:44:33.166Z,101563.66
2022-08-22T18:47:10.388Z,101571.22
2022-08-22T18:49:48.422Z,101574.91
2022-08-22T18:52:20.638Z,101568.53
2022-08-22T18:55:06.646Z,101563.59
2022-08-22T18:57:55.285Z,101558.94
2022-08-22T19:00:39.922Z,101562.22
2022-08-22T19:03:27.827Z,101568.75
2022-08-22T19:06:23.429Z,101568.19
2022-08-22T19:09:04.571Z,101577.81
2022-08-22T19:11:46.165Z,101570.19
2022-08-22T19:14:26.940Z,101577.84
2022-08-22T19:17:32.062Z,101575.84
2022-08-22T19:20:22.482Z,101583.41
2022-08-22T19:22:51.266Z,101587.50
2022-08-22T19:25:26.217Z,101579.84
2022-08-22T19:28:25.246Z,101583.25
2022-08-22T19:31:16.498Z,101579.88
2022-08-22T19:33:48.572Z,101574.34
2022-08-22T19:36:31.006Z,101573.38
2022-08-22T19:39:04.424Z,101570.50
2022-08-22T19:41:43.644Z,101576.91
2022-08-22T19:44:31.366Z,101569.81
2022-08-22T19:47:05.387Z,101576.44
2022-08-22T19:49:37.216Z,101574.91
2022-08-22T19:52:13.589Z,101564.97
2022-08-22T19:54:51.666Z,101580.44
2022-08-22T19:57:28.018Z,101571.06
2022-08-22T20:00:06.083Z,101579.75
2022-08-22T20:02:51.150Z,101573.50
2022-08-22T20:05:45.387Z,101573.47
2022-08-22T20:08:36.039Z,101563.56
2022-08-22T20:11:18.638Z,101570.22
2022-08-22T20:13:45.625Z,101568.38
2022-08-22T20:16:18.320Z,101573.63
2022-08-22T20:19:09.648Z,101563.69
2022-08-22T20:21:40.562Z,101558.91
2022-08-22T20:24:11.855Z,101564.97
2022-08-22T20:26:52.091Z,101568.91
2022-08-22T20:29:30.759Z,101566.22
2022-08-22T20:31:59.599Z,101558.84
2022-08-22T20:34:29.782Z,101561.28
2022-08-22T20:37:22.661Z,101554.31
2022-08-22T20:39:58.532Z,101543.97
2022-08-22T20:42:28.504Z,101557.56
2022-08-22T20:44:56.246Z,101552.34
2022-08-22T20:47:36.232Z,101555.31
2022-08-22T20:50:12.226Z,101556.59
2022-08-22T20:52:51.916Z,101547.63
2022-08-22T20:55:27.238Z,101550.00
2022-08-22T20:58:02.693Z,101558.16
2022-08-22T21:00:33.575Z,101546.81
2022-08-22T21:03:07.649Z,101553.66
2022-08-22T21:05:38.356Z,101541.44
2022-08-22T21:08:07.942Z,101555.91
2022-08-22T21:10:56.126Z,101553.06
2022-08-22T21:13:25.116Z,101551.38
2022-08-22T21:15:54.661Z,101566.00
2022-08-22T21:18:30.352Z,101559.97
2022-08-22T21:21:16.966Z,101550.97
2022-08-22T21:23:46.930Z,101555.00
2022-08-22T21:26:22.469Z,101550.88
2022-08-22T21:28:57.362Z,101553.94
2022-08-22T21:31:27.351Z,101563.00
2022-08-22T21:33:57.003Z,101557.75
2022-08-22T21:36:27.572Z,101557.09
2022-08-22T21:38:57.735Z,101558.53
2022-08-22T21:41:27.240Z,101560.69
2022-08-22T21:43:54.616Z,101557.84
2022-08-22T21:46:27.062Z,101563.41
2022-08-22T21:49:00.938Z,101565.09
2022-08-22T21:51:32.126Z,101562.69
2022-08-22T21:54:32.847Z,101559.59
2022-08-22T21:57:15.738Z,101558.59
2022-08-22T21:59:51.401Z,101558.59
2022-08-22T22:02:31.355Z,101557.47
2022-08-22T22:05:08.289Z,101554.75
2022-08-22T22:07:36.760Z,101545.84
2022-08-22T22:10:05.328Z,101553.50
2022-08-22T22:12:32.058Z,101547.53
2022-08-22T22:14:58.908Z,101554.88
2022-08-22T22:17:25.996Z,101549.78
2022-08-22T22:19:52.782Z,101546.94
2022-08-22T22:22:21.920Z,101543.06
2022-08-22T22:24:48.827Z,101550.72
2022-08-22T22:27:17.200Z,101542.63
2022-08-22T22:29:44.355Z,101545.44
2022-08-22T22:32:11.123Z,101542.31
2022-08-22T22:34:39.205Z,101543.94
2022-08-22T22:37:06.860Z,101544.84
2022-08-22T22:39:36.798Z,101548.47
2022-08-22T22:42:04.756Z,101549.03
2022-08-22T22:44:31.588Z,101554.69
2022-08-22T22:46:58.995Z,101552.50
2022-08-22T22:49:25.924Z,101546.44
2022-08-22T22:51:52.683Z,101546.94
2022-08-22T22:54:19.702Z,101556.78
2022-08-22T22:56:55.542Z,101554.00
2022-08-22T22:59:25.496Z,101558.28
2022-08-22T23:02:05.145Z,101560.88
2022-08-22T23:04:33.447Z,101558.59
2022-08-22T23:07:00.282Z,101557.19
2022-08-22T23:09:28.281Z,101557.19
2022-08-22T23:12:08.411Z,101555.75
2022-08-22T23:14:35.967Z,101558.16
2022-08-22T23:17:04.588Z,101550.94
2022-08-22T23:19:31.611Z,101555.75
2022-08-22T23:22:00.110Z,101551.06
2022-08-22T23:24:29.290Z,101539.88
2022-08-22T23:26:56.395Z,101547.28
2022-08-22T23:29:24.948Z,101544.41
2022-08-22T23:31:54.304Z,101541.41
2022-08-22T23:34:24.980Z,101535.91
2022-08-22T23:36:53.917Z,101534.59
2022-08-22T23:39:22.134Z,101530.22
2022-08-22T23:41:49.748Z,101529.09
2022-08-22T23:44:20.303Z,101527.38
2022-08-22T23:46:49.011Z,101521.59
2022-08-22T23:49:16.459Z,101517.88
2022-08-22T23:51:44.436Z,101525.97
2022-08-22T23:54:12.042Z,101530.25
2022-08-22T23:56:40.703Z,101531.91
2022-08-22T23:59:10.483Z,101536.72
